createdAt,value
2019-03-24T00:02:09.894Z,25.10
2019-03-24T00:04:42.502Z,28.23
2019-03-24T00:07:15.047Z,26.73
2019-03-24T00:09:47.525Z,27.80
2019-03-24T00:12:20.061Z,27.77
2019-03-24T00:14:52.574Z,28.07
2019-03-24T00:17:26.935Z,27.33
2019-03-24T00:19:59.433Z,23.73
2019-03-24T00:22:31.940Z,30.17
2019-03-24T00:25:04.476Z,28.97
2019-03-24T00:27:36.996Z,30.53
2019-03-24T00:30:11.309Z,29.57
2019-03-24T00:32:43.815Z,30.70
2019-03-24T00:35:16.326Z,27.70
2019-03-24T00:37:49.223Z,30.10
2019-03-24T00:40:21.715Z,29.00
2019-03-24T00:42:54.380Z,32.20
2019-03-24T00:45:36.417Z,30.43
2019-03-24T00:48:02.445Z,29.50
2019-03-24T00:50:34.942Z,34.20
2019-03-24T00:53:07.594Z,28.80
2019-03-24T00:55:40.173Z,28.53
2019-03-24T00:58:12.801Z,28.13
2019-03-24T01:00:47.112Z,30.10
2019-03-24T01:03:19.750Z,31.83
2019-03-24T01:05:52.248Z,29.83
2019-03-24T01:08:24.867Z,29.37
2019-03-24T01:10:57.342Z,29.70
2019-03-24T01:13:29.870Z,27.17
2019-03-24T01:16:02.368Z,28.73
2019-03-24T01:18:34.939Z,28.37
2019-03-24T01:21:07.442Z,26.67
2019-03-24T01:23:39.954Z,27.73
2019-03-24T01:26:12.500Z,32.03
2019-03-24T01:28:44.995Z,31.67
2019-03-24T01:31:17.506Z,29.80
2019-03-24T01:33:50.017Z,32.77
2019-03-24T01:36:22.550Z,29.37
2019-03-24T01:38:55.065Z,28.30
2019-03-24T01:41:27.574Z,29.87
2019-03-24T01:44:00.127Z,31.30
2019-03-24T01:46:32.597Z,33.80
2019-03-24T01:49:05.220Z,30.03
2019-03-24T01:51:37.718Z,26.70
2019-03-24T01:54:10.222Z,30.67
2019-03-24T01:56:42.718Z,32.03
2019-03-24T01:59:15.310Z,34.40
2019-03-24T02:01:47.840Z,35.00
2019-03-24T02:04:20.293Z,30.67
2019-03-24T02:06:52.851Z,31.97
2019-03-24T02:09:25.354Z,32.63
2019-03-24T02:11:57.812Z,32.27
2019-03-24T02:14:30.310Z,33.13
2019-03-24T02:17:02.912Z,32.23
2019-03-24T02:19:35.428Z,33.30
2019-03-24T02:22:07.954Z,34.73
2019-03-24T02:24:40.465Z,32.53
2019-03-24T02:27:12.957Z,31.50
2019-03-24T02:29:45.482Z,31.53
2019-03-24T02:32:17.977Z,32.13
2019-03-24T02:34:50.464Z,30.33
2019-03-24T02:37:22.979Z,37.27
2019-03-24T02:39:55.476Z,31.30
2019-03-24T02:42:27.978Z,34.40
2019-03-24T02:45:00.503Z,34.67
2019-03-24T02:47:33.011Z,33.73
2019-03-24T02:50:06.858Z,32.20
2019-03-24T02:52:39.344Z,33.60
2019-03-24T02:55:11.840Z,36.17
2019-03-24T02:57:44.391Z,32.50
2019-03-24T03:00:17.206Z,39.27
2019-03-24T03:02:49.699Z,31.97
2019-03-24T03:05:22.209Z,30.50
2019-03-24T03:07:54.718Z,33.37
2019-03-24T03:10:27.214Z,34.80
2019-03-24T03:12:59.731Z,35.50
2019-03-24T03:15:32.185Z,32.57
2019-03-24T03:18:04.692Z,35.83
2019-03-24T03:20:37.155Z,33.93
2019-03-24T03:23:09.652Z,31.90
2019-03-24T03:25:42.125Z,35.20
2019-03-24T03:28:14.618Z,33.37
2019-03-24T03:30:47.104Z,35.63
2019-03-24T03:33:19.614Z,36.13
2019-03-24T03:35:52.085Z,37.67
2019-03-24T03:38:24.680Z,39.53
2019-03-24T03:40:57.232Z,36.53
2019-03-24T03:43:29.733Z,38.83
2019-03-24T03:46:02.250Z,37.23
2019-03-24T03:48:34.733Z,36.53
2019-03-24T03:51:07.210Z,33.00
2019-03-24T03:53:39.710Z,38.60
2019-03-24T03:56:12.202Z,35.50
2019-03-24T03:58:44.744Z,34.03
2019-03-24T04:01:17.221Z,39.80
2019-03-24T04:03:49.720Z,36.33
2019-03-24T04:06:22.214Z,35.97
2019-03-24T04:08:54.782Z,34.00
2019-03-24T04:11:27.299Z,39.30
2019-03-24T04:13:59.813Z,38.30
2019-03-24T04:16:32.301Z,38.50
2019-03-24T04:19:04.794Z,36.60
2019-03-24T04:21:37.290Z,37.57
2019-03-24T04:24:09.796Z,33.73
2019-03-24T04:26:42.285Z,38.07
2019-03-24T04:29:14.785Z,35.33
2019-03-24T04:31:47.265Z,36.10
2019-03-24T04:34:19.769Z,39.57
2019-03-24T04:36:52.248Z,34.80
2019-03-24T04:39:24.748Z,37.60
2019-03-24T04:41:57.247Z,40.10
2019-03-24T04:44:29.815Z,37.60
2019-03-24T04:47:02.378Z,34.43
2019-03-24T04:49:34.913Z,36.50
2019-03-24T04:52:07.398Z,39.17
2019-03-24T04:54:40.233Z,39.47
2019-03-24T04:57:12.713Z,38.57
2019-03-24T04:59:45.206Z,36.50
2019-03-24T05:02:17.811Z,37.87
2019-03-24T05:04:50.330Z,38.47
2019-03-24T05:07:23.209Z,40.93
2019-03-24T05:09:55.842Z,40.37
2019-03-24T05:12:28.330Z,41.53
2019-03-24T05:15:00.824Z,42.93
2019-03-24T05:17:33.354Z,39.40
2019-03-24T05:20:05.870Z,44.43
2019-03-24T05:22:38.412Z,41.33
2019-03-24T05:25:10.883Z,43.67
2019-03-24T05:27:43.385Z,39.57
2019-03-24T05:30:15.849Z,41.37
2019-03-24T05:32:48.348Z,40.63
2019-03-24T05:35:20.812Z,41.23
2019-03-24T05:37:53.300Z,40.20
2019-03-24T05:40:25.793Z,39.40
2019-03-24T05:42:58.315Z,38.87
2019-03-24T05:45:30.822Z,44.77
2019-03-24T05:48:03.326Z,42.77
2019-03-24T05:50:35.841Z,41.63
2019-03-24T05:53:08.349Z,42.13
2019-03-24T05:55:40.843Z,44.07
2019-03-24T05:58:13.361Z,43.90
2019-03-24T06:00:45.861Z,45.80
2019-03-24T06:03:18.363Z,47.03
2019-03-24T06:05:50.839Z,48.77
2019-03-24T06:08:23.340Z,44.30
2019-03-24T06:10:55.825Z,41.23
2019-03-24T06:13:28.332Z,44.57
2019-03-24T06:16:00.891Z,42.80
2019-03-24T06:18:33.403Z,45.13
2019-03-24T06:21:05.897Z,44.13
2019-03-24T06:23:38.484Z,45.27
2019-03-24T06:26:10.988Z,44.07
2019-03-24T06:28:43.524Z,44.37
2019-03-24T06:31:16.075Z,44.93
2019-03-24T06:33:48.568Z,39.17
2019-03-24T06:36:21.066Z,44.33
2019-03-24T06:38:53.614Z,44.87
2019-03-24T06:41:26.107Z,44.37
2019-03-24T06:43:58.664Z,43.33
2019-03-24T06:46:31.182Z,39.30
2019-03-24T06:49:03.698Z,41.27
2019-03-24T06:51:36.228Z,45.23
2019-03-24T06:54:08.715Z,39.33
2019-03-24T06:56:41.258Z,40.37
2019-03-24T06:59:13.811Z,39.47
2019-03-24T07:01:46.377Z,39.87
2019-03-24T07:04:19.877Z,39.03
2019-03-24T07:06:52.388Z,38.73
2019-03-24T07:09:24.905Z,33.87
2019-03-24T07:11:57.434Z,38.13
2019-03-24T07:14:29.941Z,40.67
2019-03-24T07:17:02.516Z,40.20
2019-03-24T07:19:35.064Z,38.23
2019-03-24T07:22:07.583Z,39.17
2019-03-24T07:24:40.100Z,37.93
2019-03-24T07:27:12.620Z,37.43
2019-03-24T07:29:45.120Z,39.27
2019-03-24T07:32:17.684Z,41.07
2019-03-24T07:34:50.169Z,40.00
2019-03-24T07:37:22.700Z,38.33
2019-03-24T07:39:55.237Z,42.23
2019-03-24T07:42:27.801Z,42.47
2019-03-24T07:45:00.364Z,39.30
2019-03-24T07:47:32.833Z,38.87
2019-03-24T07:50:06.395Z,38.87
2019-03-24T07:52:38.945Z,42.53
2019-03-24T07:55:11.470Z,45.47
2019-03-24T07:57:44.006Z,40.70
2019-03-24T08:00:59.027Z,40.03
2019-03-24T08:03:51.175Z,43.63
2019-03-24T08:07:04.206Z,42.30
2019-03-24T08:10:17.293Z,40.57
2019-03-24T08:12:49.940Z,44.13
2019-03-24T08:15:22.420Z,45.57
2019-03-24T08:18:14.138Z,41.87
2019-03-24T08:20:46.629Z,46.20
2019-03-24T08:23:19.172Z,45.80
2019-03-24T08:25:51.716Z,48.30
2019-03-24T08:28:24.259Z,50.53
2019-03-24T08:30:56.759Z,51.97
2019-03-24T08:33:29.320Z,53.73
2019-03-24T08:36:01.825Z,49.90
2019-03-24T08:38:34.361Z,62.03
2019-03-24T08:41:06.897Z,56.83
2019-03-24T08:43:39.448Z,62.57
2019-03-24T08:46:12.017Z,67.83
2019-03-24T08:48:44.683Z,65.33
2019-03-24T08:51:17.217Z,78.77
2019-03-24T08:53:49.757Z,68.93
2019-03-24T08:56:22.271Z,74.40
2019-03-24T08:58:54.791Z,62.67
2019-03-24T09:01:27.333Z,66.10
2019-03-24T09:03:59.882Z,59.07
2019-03-24T09:06:32.406Z,62.03
2019-03-24T09:09:06.427Z,56.20
2019-03-24T09:11:38.986Z,60.60
2019-03-24T09:14:11.499Z,62.07
2019-03-24T09:16:44.092Z,55.07
2019-03-24T09:19:16.659Z,60.87
2019-03-24T09:21:49.216Z,70.40
2019-03-24T09:24:21.778Z,62.70
2019-03-24T09:26:54.303Z,64.67
2019-03-24T09:29:26.869Z,63.53
2019-03-24T09:31:59.419Z,66.07
2019-03-24T09:34:31.973Z,64.97
2019-03-24T09:37:04.473Z,65.87
2019-03-24T09:39:36.998Z,67.27
2019-03-24T09:42:50.077Z,68.45
2019-03-24T09:45:22.627Z,61.77
2019-03-24T09:47:55.207Z,62.65
2019-03-24T09:50:27.735Z,59.18
2019-03-24T09:53:00.345Z,67.15
2019-03-24T09:55:32.855Z,69.62
2019-03-24T09:58:05.412Z,66.65
2019-03-24T10:00:37.926Z,70.97
2019-03-24T10:03:10.489Z,65.87
2019-03-24T10:05:43.012Z,65.50
2019-03-24T10:08:15.599Z,63.75
2019-03-24T10:10:48.166Z,69.05
2019-03-24T10:13:20.745Z,69.45
2019-03-24T10:15:53.252Z,69.58
2019-03-24T10:18:25.965Z,67.00
2019-03-24T10:20:58.499Z,64.03
2019-03-24T10:23:31.040Z,66.95
2019-03-24T10:26:03.575Z,68.17
2019-03-24T10:28:36.119Z,70.30
2019-03-24T10:31:08.632Z,71.45
2019-03-24T10:33:41.185Z,74.53
2019-03-24T10:36:13.681Z,70.87
2019-03-24T10:38:46.204Z,73.42
2019-03-24T10:41:18.710Z,71.20
2019-03-24T10:43:51.258Z,72.50
2019-03-24T10:46:23.811Z,74.77
2019-03-24T10:48:56.377Z,70.10
2019-03-24T10:51:28.851Z,77.55
2019-03-24T10:54:01.385Z,73.35
2019-03-24T10:56:33.874Z,72.42
2019-03-24T10:59:06.432Z,74.87
2019-03-24T11:01:38.994Z,78.95
2019-03-24T11:04:11.512Z,66.77
2019-03-24T11:06:44.026Z,73.83
2019-03-24T11:09:16.564Z,62.95
2019-03-24T11:11:49.109Z,71.50
2019-03-24T11:14:21.640Z,68.47
2019-03-24T11:16:54.168Z,72.40
2019-03-24T11:19:35.241Z,74.07
2019-03-24T11:22:01.190Z,67.92
2019-03-24T11:24:33.752Z,67.17
2019-03-24T11:27:06.284Z,71.47
2019-03-24T11:29:38.837Z,69.95
2019-03-24T11:32:11.325Z,69.45
2019-03-24T11:34:43.844Z,60.35
2019-03-24T11:37:16.369Z,66.57
2019-03-24T11:39:48.926Z,58.83
2019-03-24T11:42:21.449Z,62.88
2019-03-24T11:44:53.989Z,63.95
2019-03-24T11:47:27.089Z,58.83
2019-03-24T11:50:00.941Z,47.88
2019-03-24T11:52:33.501Z,57.98
2019-03-24T11:55:47.204Z,58.98
2019-03-24T11:58:19.720Z,58.10
2019-03-24T12:00:52.275Z,66.33
2019-03-24T12:03:25.514Z,67.92
2019-03-24T12:05:59.274Z,62.03
2019-03-24T12:08:31.800Z,66.28
2019-03-24T12:11:04.487Z,70.55
2019-03-24T12:13:37.013Z,68.45
2019-03-24T12:16:09.576Z,68.45
2019-03-24T12:18:42.088Z,67.90
2019-03-24T12:21:14.632Z,456.00
2019-03-24T12:23:47.157Z,691.25
2019-03-24T12:26:19.709Z,234.45
2019-03-24T12:28:52.229Z,334.15
2019-03-24T12:31:24.809Z,146.05
2019-03-24T12:33:57.314Z,122.05
2019-03-24T12:36:29.942Z,83.62
2019-03-24T12:41:56.582Z,60.75
2019-03-24T12:44:29.123Z,68.60
2019-03-24T12:47:01.725Z,59.38
2019-03-24T12:49:34.262Z,64.35
2019-03-24T12:52:06.824Z,63.30
2019-03-24T12:54:39.385Z,60.75
2019-03-24T12:57:11.925Z,60.52
2019-03-24T12:59:44.466Z,57.50
2019-03-24T13:02:17.087Z,59.88
2019-03-24T13:07:28.191Z,58.98
2019-03-24T13:10:00.701Z,59.45
2019-03-24T13:12:33.234Z,57.95
2019-03-24T13:15:06.412Z,56.68
2019-03-24T13:17:39.031Z,56.75
2019-03-24T13:20:20.209Z,62.03
2019-03-24T13:22:46.050Z,59.60
2019-03-24T13:25:18.606Z,61.30
2019-03-24T13:27:51.104Z,59.48
2019-03-24T13:30:23.789Z,63.60
2019-03-24T13:32:56.324Z,63.13
2019-03-24T13:35:28.876Z,57.55
2019-03-24T13:38:01.433Z,56.55
2019-03-24T13:40:33.965Z,59.40
2019-03-24T13:43:06.493Z,58.85
2019-03-24T13:45:39.111Z,59.38
2019-03-24T13:48:11.624Z,57.65
2019-03-24T13:50:44.210Z,61.42
2019-03-24T13:53:16.695Z,59.88
2019-03-24T13:55:49.240Z,57.13
2019-03-24T13:58:21.765Z,60.40
2019-03-24T14:00:54.321Z,54.25
2019-03-24T14:03:26.954Z,55.90
2019-03-24T14:05:59.469Z,56.30
2019-03-24T14:08:32.030Z,57.03
2019-03-24T14:11:04.635Z,51.35
2019-03-24T14:13:37.272Z,56.18
2019-03-24T14:16:09.957Z,50.43
2019-03-24T14:18:42.472Z,53.30
2019-03-24T14:21:15.033Z,58.87
2019-03-24T14:23:47.538Z,50.52
2019-03-24T14:26:20.118Z,47.95
2019-03-24T14:28:52.628Z,57.38
2019-03-24T14:31:25.168Z,56.15
2019-03-24T14:33:57.702Z,54.70
2019-03-24T14:36:30.254Z,60.95
2019-03-24T14:39:03.590Z,52.50
2019-03-24T14:41:36.159Z,49.88
2019-03-24T14:44:08.665Z,53.45
2019-03-24T14:46:41.224Z,56.73
2019-03-24T14:49:13.820Z,54.25
2019-03-24T14:51:46.383Z,53.65
2019-03-24T14:54:18.929Z,53.38
2019-03-24T14:56:51.450Z,54.50
2019-03-24T14:59:24.005Z,54.93
2019-03-24T15:01:56.541Z,57.83
2019-03-24T15:04:29.118Z,56.73
2019-03-24T15:07:01.669Z,52.50
2019-03-24T15:09:34.228Z,53.20
2019-03-24T15:12:06.801Z,57.00
2019-03-24T15:14:39.358Z,52.03
2019-03-24T15:17:11.953Z,54.95
2019-03-24T15:19:44.475Z,51.90
2019-03-24T15:22:17.095Z,57.58
2019-03-24T15:24:49.593Z,52.30
2019-03-24T15:27:22.177Z,53.42
2019-03-24T15:29:54.789Z,45.23
2019-03-24T15:32:27.374Z,58.70
2019-03-24T15:34:59.890Z,53.85
2019-03-24T15:37:32.473Z,54.58
2019-03-24T15:40:05.269Z,55.52
2019-03-24T15:42:37.804Z,58.08
2019-03-24T15:45:10.367Z,58.90
2019-03-24T15:47:42.974Z,53.50
2019-03-24T15:50:15.637Z,54.60
2019-03-24T15:52:48.167Z,51.58
2019-03-24T15:55:20.716Z,59.77
2019-03-24T15:57:53.257Z,62.78
2019-03-24T16:00:45.692Z,56.30
2019-03-24T16:03:18.277Z,58.20
2019-03-24T16:05:50.808Z,60.52
2019-03-24T16:08:23.403Z,58.75
2019-03-24T16:10:55.922Z,50.40
2019-03-24T16:13:28.515Z,55.92
2019-03-24T16:16:01.080Z,55.30
2019-03-24T16:18:33.644Z,52.90
2019-03-24T16:21:06.229Z,59.95
2019-03-24T16:23:38.768Z,55.13
2019-03-24T16:26:11.332Z,57.88
2019-03-24T16:28:43.896Z,57.60
2019-03-24T16:31:16.501Z,50.63
2019-03-24T16:33:49.052Z,56.30
2019-03-24T16:36:21.610Z,53.00
2019-03-24T16:39:03.174Z,59.58
2019-03-24T16:41:28.656Z,54.00
2019-03-24T16:44:01.193Z,50.30
2019-03-24T16:46:34.035Z,44.17
2019-03-24T16:49:06.592Z,44.90
2019-03-24T16:51:41.573Z,51.43
2019-03-24T16:54:13.624Z,52.97
2019-03-24T16:56:46.214Z,56.87
2019-03-24T16:59:18.764Z,50.47
2019-03-24T17:01:51.346Z,55.43
2019-03-24T17:04:23.940Z,51.53
2019-03-24T17:06:56.477Z,50.60
2019-03-24T17:09:29.027Z,58.65
2019-03-24T17:12:01.630Z,51.80
2019-03-24T17:14:34.148Z,51.88
2019-03-24T17:17:06.803Z,55.28
2019-03-24T17:19:39.343Z,63.00
2019-03-24T17:22:11.913Z,58.00
2019-03-24T17:24:44.465Z,61.37
2019-03-24T17:27:17.018Z,55.60
2019-03-24T17:29:49.593Z,61.37
2019-03-24T17:32:22.230Z,53.00
2019-03-24T17:34:54.834Z,52.40
2019-03-24T17:37:29.903Z,53.90
2019-03-24T17:40:01.874Z,54.87
2019-03-24T17:42:34.423Z,57.87
2019-03-24T17:45:08.277Z,60.93
2019-03-24T17:47:40.877Z,53.57
2019-03-24T17:50:13.858Z,54.83
2019-03-24T17:52:46.440Z,48.17
2019-03-24T17:55:27.230Z,54.90
2019-03-24T17:57:53.414Z,50.60
2019-03-24T18:00:47.565Z,51.63
2019-03-24T18:03:20.135Z,54.33
2019-03-24T18:05:52.666Z,61.10
2019-03-24T18:08:25.248Z,71.03
2019-03-24T18:10:57.815Z,73.10
2019-03-24T18:13:30.411Z,60.80
2019-03-24T18:16:03.005Z,53.83
2019-03-24T18:18:35.591Z,51.90
2019-03-24T18:21:08.112Z,55.57
2019-03-24T18:23:40.760Z,52.70
2019-03-24T18:26:13.310Z,57.53
2019-03-24T18:28:45.917Z,50.63
2019-03-24T18:31:18.435Z,58.90
2019-03-24T18:33:51.027Z,56.70
2019-03-24T18:36:23.555Z,54.60
2019-03-24T18:38:57.364Z,51.97
2019-03-24T18:41:29.934Z,56.93
2019-03-24T18:44:02.580Z,54.40
2019-03-24T18:46:35.202Z,54.07
2019-03-24T18:49:07.800Z,51.20
2019-03-24T18:51:40.371Z,53.70
2019-03-24T18:54:13.033Z,53.23
2019-03-24T18:56:45.583Z,56.13
2019-03-24T18:59:18.202Z,59.30
2019-03-24T19:01:50.728Z,53.97
2019-03-24T19:04:23.296Z,53.40
2019-03-24T19:06:55.873Z,58.47
2019-03-24T19:09:28.549Z,57.07
2019-03-24T19:12:01.202Z,77.50
2019-03-24T19:14:33.845Z,56.63
2019-03-24T19:17:06.448Z,54.50
2019-03-24T19:19:39.030Z,50.20
2019-03-24T19:22:11.608Z,54.27
2019-03-24T19:24:44.220Z,53.63
2019-03-24T19:27:16.865Z,50.80
2019-03-24T19:29:49.505Z,44.60
2019-03-24T19:32:22.108Z,48.27
2019-03-24T19:34:54.743Z,50.50
2019-03-24T19:37:27.305Z,51.30
2019-03-24T19:40:00.062Z,50.03
2019-03-24T19:42:32.638Z,52.07
2019-03-24T19:45:05.485Z,53.70
2019-03-24T19:47:38.094Z,51.17
2019-03-24T19:50:10.723Z,45.90
2019-03-24T19:52:44.889Z,47.50
2019-03-24T19:55:17.618Z,51.00
2019-03-24T19:57:51.896Z,43.80
2019-03-24T20:00:24.663Z,54.53
2019-03-24T20:02:57.273Z,45.30
2019-03-24T20:05:29.838Z,48.30
2019-03-24T20:08:02.612Z,53.67
2019-03-24T20:10:35.262Z,51.57
2019-03-24T20:13:07.796Z,59.53
2019-03-24T20:15:40.380Z,54.73
2019-03-24T20:18:12.946Z,54.93
2019-03-24T20:20:45.494Z,53.67
2019-03-24T20:23:18.066Z,56.00
2019-03-24T20:25:50.622Z,52.10
2019-03-24T20:28:23.229Z,53.37
2019-03-24T20:30:55.784Z,50.30
2019-03-24T20:33:28.370Z,51.37
2019-03-24T20:36:00.936Z,80.33
2019-03-24T20:38:33.540Z,95.57
2019-03-24T20:41:06.101Z,82.53
2019-03-24T20:43:38.723Z,62.03
2019-03-24T20:46:11.321Z,67.60
2019-03-24T20:48:43.891Z,55.43
2019-03-24T20:51:16.446Z,54.00
2019-03-24T20:53:49.103Z,50.47
2019-03-24T20:56:21.618Z,46.27
2019-03-24T20:58:56.579Z,52.63
2019-03-24T21:01:29.192Z,49.93
2019-03-24T21:04:01.842Z,56.37
2019-03-24T21:06:34.373Z,53.17
2019-03-24T21:09:07.369Z,57.53
2019-03-24T21:11:39.932Z,51.87
2019-03-24T21:14:12.515Z,53.67
2019-03-24T21:16:45.107Z,54.47
2019-03-24T21:19:17.668Z,50.30
2019-03-24T21:21:50.242Z,50.33
2019-03-24T21:24:22.805Z,50.97
2019-03-24T21:26:55.410Z,54.07
2019-03-24T21:29:27.958Z,49.17
2019-03-24T21:32:00.485Z,53.30
2019-03-24T21:34:33.070Z,57.90
2019-03-24T21:37:05.576Z,47.20
2019-03-24T21:39:38.116Z,66.53
2019-03-24T21:42:10.656Z,59.53
2019-03-24T21:44:43.237Z,56.00
2019-03-24T21:47:15.836Z,51.30
2019-03-24T21:49:48.373Z,53.00
2019-03-24T21:52:20.976Z,55.57
2019-03-24T21:54:53.505Z,54.70
2019-03-24T21:57:26.077Z,57.57
2019-03-24T21:59:58.636Z,48.70
2019-03-24T22:02:31.181Z,48.93
2019-03-24T22:05:03.853Z,50.77
2019-03-24T22:07:36.430Z,53.93
2019-03-24T22:10:09.088Z,50.90
2019-03-24T22:12:41.676Z,48.10
2019-03-24T22:15:16.715Z,52.47
2019-03-24T22:17:49.314Z,48.47
2019-03-24T22:20:21.861Z,54.37
2019-03-24T22:22:54.396Z,51.33
2019-03-24T22:25:26.959Z,52.47
2019-03-24T22:27:59.573Z,53.37
2019-03-24T22:30:32.097Z,52.17
2019-03-24T22:33:04.644Z,50.07
2019-03-24T22:35:37.170Z,48.67
2019-03-24T22:38:09.736Z,52.17
2019-03-24T22:40:42.262Z,54.43
2019-03-24T22:43:14.838Z,51.10
2019-03-24T22:45:47.335Z,50.93
2019-03-24T22:48:19.882Z,51.43
2019-03-24T22:50:52.406Z,52.10
2019-03-24T22:53:24.934Z,46.33
2019-03-24T22:55:57.475Z,49.40
2019-03-24T22:58:30.048Z,50.57
2019-03-24T23:01:02.685Z,51.20
2019-03-24T23:03:35.210Z,51.07
2019-03-24T23:06:07.722Z,50.93
2019-03-24T23:08:40.263Z,51.67
2019-03-24T23:11:12.782Z,52.13
2019-03-24T23:13:45.351Z,49.23
2019-03-24T23:16:17.840Z,56.63
2019-03-24T23:18:50.407Z,47.40
2019-03-24T23:21:22.912Z,50.77
2019-03-24T23:23:55.503Z,48.53
2019-03-24T23:26:28.039Z,48.73
2019-03-24T23:29:00.597Z,47.40
2019-03-24T23:31:34.246Z,50.13
2019-03-24T23:34:06.845Z,46.73
2019-03-24T23:36:39.346Z,49.03
2019-03-24T23:39:11.870Z,50.20
2019-03-24T23:41:44.405Z,45.33
2019-03-24T23:44:16.958Z,45.40
2019-03-24T23:46:49.452Z,44.97
2019-03-24T23:49:21.973Z,45.43
2019-03-24T23:51:54.512Z,43.40
2019-03-24T23:54:27.608Z,37.57
2019-03-24T23:57:00.248Z,40.10
2019-03-24T23:59:32.776Z,37.20
